createdAt,value
2023-03-05T00:01:55.960Z,98464.20
2023-03-05T00:04:32.222Z,98459.20
2023-03-05T00:07:12.472Z,98459.80
2023-03-05T00:09:48.976Z,98456.80
2023-03-05T00:12:25.608Z,98458.60
2023-03-05T00:15:02.080Z,98459.60
2023-03-05T00:17:38.749Z,98460.00
2023-03-05T00:20:17.795Z,98460.00
2023-03-05T00:22:54.243Z,98454.40
2023-03-05T00:25:31.710Z,98451.80
2023-03-05T00:28:08.743Z,98448.80
2023-03-05T00:30:45.717Z,98447.20
2023-03-05T00:33:22.076Z,98444.20
2023-03-05T00:35:58.815Z,98444.60
2023-03-05T00:38:36.222Z,98442.00
2023-03-05T00:41:13.040Z,98438.60
2023-03-05T00:43:49.829Z,98443.60
2023-03-05T00:46:27.769Z,98440.00
2023-03-05T00:49:04.610Z,98427.80
2023-03-05T00:51:41.819Z,98427.40
2023-03-05T00:54:18.226Z,98426.80
2023-03-05T00:56:54.888Z,98428.40
2023-03-05T00:59:31.241Z,98423.40
2023-03-05T01:02:07.518Z,98421.40
2023-03-05T01:04:47.206Z,98419.60
2023-03-05T01:07:23.494Z,98421.40
2023-03-05T01:09:59.816Z,98423.40
2023-03-05T01:12:36.340Z,98423.20
2023-03-05T01:15:14.424Z,98419.00
2023-03-05T01:17:50.692Z,98417.00
2023-03-05T01:20:28.129Z,98416.40
2023-03-05T01:23:04.463Z,98416.40
2023-03-05T01:25:41.251Z,98417.40
2023-03-05T01:28:18.031Z,98414.20
2023-03-05T01:30:54.887Z,98416.20
2023-03-05T01:33:31.234Z,98419.20
2023-03-05T01:36:16.217Z,98419.20
2023-03-05T01:38:53.043Z,98423.00
2023-03-05T01:41:29.585Z,98419.00
2023-03-05T01:44:06.754Z,98416.40
2023-03-05T01:46:44.373Z,98416.40
2023-03-05T01:49:34.515Z,98420.00
2023-03-05T01:52:18.937Z,98417.80
2023-03-05T01:55:00.964Z,98414.60
2023-03-05T01:57:43.858Z,98415.40
2023-03-05T02:00:30.617Z,98415.20
2023-03-05T02:03:11.914Z,98415.60
2023-03-05T02:05:49.153Z,98417.60
2023-03-05T02:08:26.716Z,98416.20
2023-03-05T02:11:03.308Z,98413.00
2023-03-05T02:13:41.389Z,98410.60
2023-03-05T02:16:17.826Z,98412.80
2023-03-05T02:18:54.434Z,98412.40
2023-03-05T02:21:46.686Z,98411.00
2023-03-05T02:24:38.246Z,98408.20
2023-03-05T02:27:16.258Z,98416.80
2023-03-05T02:29:53.739Z,98412.20
2023-03-05T02:32:31.661Z,98406.20
2023-03-05T02:35:09.567Z,98406.80
2023-03-05T02:37:46.244Z,98397.20
2023-03-05T02:40:23.280Z,98398.00
2023-03-05T02:43:00.492Z,98397.80
2023-03-05T02:45:37.739Z,98392.60
2023-03-05T02:48:14.344Z,98394.80
2023-03-05T02:50:51.182Z,98393.40
2023-03-05T02:53:28.116Z,98384.20
2023-03-05T02:56:05.958Z,98382.00
2023-03-05T02:58:44.263Z,98375.40
2023-03-05T03:01:21.013Z,98385.40
2023-03-05T03:03:57.784Z,98380.60
2023-03-05T03:06:34.252Z,98383.80
2023-03-05T03:09:10.716Z,98385.20
2023-03-05T03:11:47.314Z,98383.20
2023-03-05T03:14:23.960Z,98375.00
2023-03-05T03:17:01.082Z,98372.20
2023-03-05T03:19:38.075Z,98374.60
2023-03-05T03:22:17.033Z,98370.80
2023-03-05T03:24:53.343Z,98378.20
2023-03-05T03:27:29.755Z,98375.80
2023-03-05T03:30:07.659Z,98376.60
2023-03-05T03:32:44.439Z,98375.20
2023-03-05T03:35:21.646Z,98375.40
2023-03-05T03:37:58.144Z,98376.60
2023-03-05T03:40:36.050Z,98373.20
2023-03-05T03:43:12.521Z,98371.60
2023-03-05T03:45:49.300Z,98366.80
2023-03-05T03:48:25.555Z,98366.40
2023-03-05T03:51:04.724Z,98364.40
2023-03-05T03:53:41.052Z,98357.80
2023-03-05T03:56:17.415Z,98357.40
2023-03-05T03:58:56.553Z,98352.60
2023-03-05T04:01:33.164Z,98350.40
2023-03-05T04:04:11.636Z,98352.40
2023-03-05T04:06:48.283Z,98348.80
2023-03-05T04:09:24.668Z,98345.80
2023-03-05T04:12:01.425Z,98347.80
2023-03-05T04:14:38.744Z,98340.20
2023-03-05T04:17:16.198Z,98341.00
2023-03-05T04:19:53.158Z,98339.80
2023-03-05T04:22:30.496Z,98343.80
2023-03-05T04:25:09.854Z,98339.80
2023-03-05T04:27:46.725Z,98336.80
2023-03-05T04:30:24.339Z,98332.00
2023-03-05T04:33:01.172Z,98331.40
2023-03-05T04:35:38.235Z,98328.20
2023-03-05T04:38:15.571Z,98326.20
2023-03-05T04:40:53.084Z,98320.20
2023-03-05T04:43:30.132Z,98321.40
2023-03-05T04:46:08.259Z,98316.40
2023-03-05T04:48:44.782Z,98316.40
2023-03-05T04:51:21.076Z,98315.40
2023-03-05T04:53:57.707Z,98312.80
2023-03-05T04:56:34.036Z,98316.00
2023-03-05T04:59:10.791Z,98323.40
2023-03-05T05:01:47.516Z,98321.00
2023-03-05T05:04:24.309Z,98319.80
2023-03-05T05:07:03.066Z,98317.60
2023-03-05T05:09:41.452Z,98317.60
2023-03-05T05:12:18.262Z,98310.40
2023-03-05T05:14:54.830Z,98307.60
2023-03-05T05:17:33.340Z,98296.40
2023-03-05T05:20:16.752Z,98295.40
2023-03-05T05:22:52.976Z,98295.00
2023-03-05T05:25:29.621Z,98289.00
2023-03-05T05:28:06.514Z,98288.60
2023-03-05T05:30:43.170Z,98286.40
2023-03-05T05:33:19.512Z,98293.00
2023-03-05T05:35:56.335Z,98295.60
2023-03-05T05:38:33.346Z,98297.80
2023-03-05T05:41:14.154Z,98299.20
2023-03-05T05:43:50.785Z,98296.00
2023-03-05T05:46:29.107Z,98292.00
2023-03-05T05:49:05.675Z,98286.20
2023-03-05T05:51:42.405Z,98291.20
2023-03-05T05:54:20.037Z,98289.20
2023-03-05T05:56:56.565Z,98290.00
2023-03-05T05:59:32.936Z,98292.40
2023-03-05T06:02:11.246Z,98301.20
2023-03-05T06:04:47.831Z,98305.80
2023-03-05T06:07:24.056Z,98307.40
2023-03-05T06:10:00.598Z,98315.40
2023-03-05T06:12:37.210Z,98312.80
2023-03-05T06:15:15.215Z,98318.20
2023-03-05T06:17:51.408Z,98325.80
2023-03-05T06:20:28.957Z,98326.00
2023-03-05T06:23:05.195Z,98327.80
2023-03-05T06:25:42.182Z,98326.40
2023-03-05T06:28:18.527Z,98326.80
2023-03-05T06:31:02.976Z,98324.80
2023-03-05T06:33:41.193Z,98317.00
2023-03-05T06:36:20.805Z,98309.40
2023-03-05T06:38:58.884Z,98307.20
2023-03-05T06:41:36.351Z,98298.00
2023-03-05T06:44:13.061Z,98299.00
2023-03-05T06:46:49.769Z,98289.00
2023-03-05T06:49:26.154Z,98292.00
2023-03-05T06:52:02.729Z,98282.20
2023-03-05T06:54:39.298Z,98282.20
2023-03-05T06:57:17.076Z,98284.00
2023-03-05T06:59:53.383Z,98278.20
2023-03-05T07:02:29.946Z,98286.00
2023-03-05T07:05:07.930Z,98285.60
2023-03-05T07:07:44.170Z,98292.40
2023-03-05T07:10:20.899Z,98289.20
2023-03-05T07:12:57.630Z,98286.00
2023-03-05T07:15:34.562Z,98285.60
2023-03-05T07:18:11.646Z,98282.40
2023-03-05T07:20:48.065Z,98283.60
2023-03-05T07:23:28.791Z,98283.60
2023-03-05T07:26:08.172Z,98280.60
2023-03-05T07:28:44.982Z,98280.00
2023-03-05T07:31:27.308Z,98275.60
2023-03-05T07:34:06.654Z,98273.20
2023-03-05T07:36:43.246Z,98269.00
2023-03-05T07:39:24.689Z,98266.60
2023-03-05T07:42:01.426Z,98270.60
2023-03-05T07:44:40.420Z,98262.00
2023-03-05T07:47:16.895Z,98260.60
2023-03-05T07:49:56.609Z,98257.80
2023-03-05T07:52:33.647Z,98256.20
2023-03-05T07:55:12.986Z,98255.00
2023-03-05T07:57:49.273Z,98250.80
2023-03-05T08:00:26.691Z,98248.00
2023-03-05T08:03:03.440Z,98252.60
2023-03-05T08:05:41.981Z,98247.40
2023-03-05T08:08:18.718Z,98247.00
2023-03-05T08:10:55.035Z,98243.00
2023-03-05T08:13:31.601Z,98237.80
2023-03-05T08:16:15.564Z,98236.20
2023-03-05T08:18:54.798Z,98239.60
2023-03-05T08:21:34.697Z,98235.40
2023-03-05T08:24:14.840Z,98238.40
2023-03-05T08:26:51.129Z,98236.40
2023-03-05T08:29:28.338Z,98233.60
2023-03-05T08:32:05.465Z,98236.20
2023-03-05T08:34:41.873Z,98240.00
2023-03-05T08:37:18.192Z,98234.00
2023-03-05T08:39:56.310Z,98237.40
2023-03-05T08:42:32.811Z,98240.00
2023-03-05T08:45:12.050Z,98235.00
2023-03-05T08:47:48.454Z,98238.80
2023-03-05T08:50:26.374Z,98232.20
2023-03-05T08:53:03.092Z,98227.60
2023-03-05T08:55:39.877Z,98226.60
2023-03-05T08:58:16.134Z,98227.60
2023-03-05T09:00:52.592Z,98229.00
2023-03-05T09:03:29.266Z,98223.60
2023-03-05T09:06:12.438Z,98224.40
2023-03-05T09:08:48.903Z,98221.40
2023-03-05T09:11:25.984Z,98220.20
2023-03-05T09:14:02.505Z,98213.60
2023-03-05T09:16:41.311Z,98210.00
2023-03-05T09:19:18.833Z,98214.00
2023-03-05T09:21:56.957Z,98217.20
2023-03-05T09:24:33.708Z,98217.00
2023-03-05T09:27:11.156Z,98209.80
2023-03-05T09:29:47.479Z,98209.00
2023-03-05T09:32:24.576Z,98211.00
2023-03-05T09:35:01.527Z,98206.40
2023-03-05T09:37:38.092Z,98205.20
2023-03-05T09:40:23.208Z,98204.00
2023-03-05T09:43:15.107Z,98203.20
2023-03-05T09:46:04.986Z,98198.80
2023-03-05T09:48:59.145Z,98192.60
2023-03-05T09:51:42.196Z,98190.40
2023-03-05T09:54:24.745Z,98184.60
2023-03-05T09:57:07.267Z,98181.40
2023-03-05T09:59:57.132Z,98176.20
2023-03-05T10:02:44.897Z,98170.40
2023-03-05T10:05:30.685Z,98166.00
2023-03-05T10:08:11.505Z,98166.60
2023-03-05T10:10:53.843Z,98164.40
2023-03-05T10:13:35.368Z,98156.80
2023-03-05T10:16:50.815Z,98156.20
2023-03-05T10:20:02.961Z,98153.80
2023-03-05T10:22:53.104Z,98151.00
2023-03-05T10:25:50.965Z,98148.20
2023-03-05T10:29:05.609Z,98148.60
2023-03-05T10:32:03.903Z,98149.60
2023-03-05T10:35:24.903Z,98140.60
2023-03-05T10:38:48.276Z,98131.00
2023-03-05T10:41:38.909Z,98130.00
2023-03-05T10:44:28.754Z,98130.80
2023-03-05T10:47:17.116Z,98126.20
2023-03-05T10:49:58.455Z,98116.60
2023-03-05T10:52:46.682Z,98122.00
2023-03-05T10:55:25.461Z,98122.80
2023-03-05T10:58:02.304Z,98119.00
2023-03-05T11:00:38.981Z,98120.80
2023-03-05T11:03:15.632Z,98121.40
2023-03-05T11:06:00.188Z,98117.40
2023-03-05T11:08:40.328Z,98113.20
2023-03-05T11:11:24.184Z,98112.60
2023-03-05T11:14:04.892Z,98112.60
2023-03-05T11:16:53.245Z,98104.00
2023-03-05T11:19:33.328Z,98104.80
2023-03-05T11:22:21.757Z,98100.80
2023-03-05T11:25:21.570Z,98101.00
2023-03-05T11:28:01.827Z,98100.80
2023-03-05T11:30:42.093Z,98101.40
2023-03-05T11:33:24.167Z,98102.80
2023-03-05T11:36:31.056Z,98104.80
2023-03-05T11:39:22.638Z,98098.20
2023-03-05T11:42:05.381Z,98101.60
2023-03-05T11:44:51.841Z,98098.00
2023-03-05T11:47:43.752Z,98098.20
2023-03-05T11:50:28.544Z,98091.60
2023-03-05T11:53:13.149Z,98092.80
2023-03-05T11:55:54.149Z,98096.00
2023-03-05T11:58:41.566Z,98091.60
2023-03-05T12:01:24.338Z,98085.40
2023-03-05T12:04:01.730Z,98081.00
2023-03-05T12:06:45.967Z,98075.40
2023-03-05T12:09:33.914Z,98073.60
2023-03-05T12:12:25.936Z,98070.00
2023-03-05T12:15:16.166Z,98069.40
2023-03-05T12:18:12.159Z,98072.00
2023-03-05T12:21:04.175Z,98070.40
2023-03-05T12:23:53.123Z,98063.40
2023-03-05T12:27:09.872Z,98066.00
2023-03-05T12:29:53.023Z,98062.20
2023-03-05T12:33:04.530Z,98065.40
2023-03-05T12:35:43.089Z,98063.60
2023-03-05T12:38:36.531Z,98057.00
2023-03-05T12:41:46.665Z,98053.20
2023-03-05T12:44:26.932Z,98057.80
2023-03-05T12:47:23.864Z,98055.20
2023-03-05T12:50:01.249Z,98047.60
2023-03-05T12:52:39.836Z,98046.60
2023-03-05T12:55:44.723Z,98045.60
2023-03-05T12:58:32.690Z,98041.20
2023-03-05T13:01:24.936Z,98040.20
2023-03-05T13:04:11.186Z,98039.00
2023-03-05T13:06:48.284Z,98033.60
2023-03-05T13:09:31.865Z,98036.20
2023-03-05T13:12:16.442Z,98032.20
2023-03-05T13:15:00.515Z,98032.00
2023-03-05T13:17:53.184Z,98033.80
2023-03-05T13:20:39.540Z,98029.80
2023-03-05T13:23:29.679Z,98030.80
2023-03-05T13:26:19.226Z,98037.40
2023-03-05T13:31:59.894Z,98028.60
2023-03-05T13:34:47.626Z,98027.20
2023-03-05T13:37:29.016Z,98028.80
2023-03-05T13:40:20.427Z,98028.60
2023-03-05T13:43:09.761Z,98023.00
2023-03-05T13:45:55.147Z,98019.20
2023-03-05T13:48:33.112Z,98025.00
2023-03-05T13:51:12.049Z,98016.20
2023-03-05T13:53:49.659Z,98012.40
2023-03-05T13:56:26.128Z,98005.40
2023-03-05T13:59:02.883Z,98018.60
2023-03-05T14:01:45.845Z,98007.60
2023-03-05T14:04:30.395Z,98007.80
2023-03-05T14:07:24.750Z,98013.00
2023-03-05T14:10:03.197Z,98011.00
2023-03-05T14:12:44.214Z,98010.80
2023-03-05T14:15:30.743Z,98005.40
2023-03-05T14:18:25.971Z,98001.40
2023-03-05T14:21:11.277Z,98003.80
2023-03-05T14:23:51.757Z,97995.80
2023-03-05T14:26:34.051Z,97991.60
2023-03-05T14:29:21.181Z,97997.40
2023-03-05T14:32:01.484Z,97994.60
2023-03-05T14:34:42.174Z,97995.00
2023-03-05T14:37:28.429Z,97992.60
2023-03-05T14:40:08.629Z,97990.80
2023-03-05T14:42:58.649Z,97983.40
2023-03-05T14:45:38.465Z,97986.00
2023-03-05T14:48:19.237Z,97981.20
2023-03-05T14:50:58.408Z,97979.60
2023-03-05T14:53:42.464Z,97980.80
2023-03-05T14:56:27.560Z,97984.60
2023-03-05T14:59:03.985Z,97990.60
2023-03-05T15:01:40.437Z,97993.00
2023-03-05T15:04:19.428Z,97995.80
2023-03-05T15:06:56.014Z,97989.60
2023-03-05T15:09:32.595Z,97995.00
2023-03-05T15:12:10.697Z,97988.40
2023-03-05T15:14:47.841Z,97990.20
2023-03-05T15:17:30.352Z,97987.80
2023-03-05T15:20:10.589Z,97991.80
2023-03-05T15:22:47.205Z,97989.00
2023-03-05T15:25:26.949Z,97986.60
2023-03-05T15:28:03.605Z,97984.20
2023-03-05T15:30:43.667Z,97985.20
2023-03-05T15:33:23.177Z,97985.80
2023-03-05T15:36:00.524Z,97987.40
2023-03-05T15:38:38.997Z,97984.20
2023-03-05T15:41:17.725Z,97981.40
2023-03-05T15:43:54.377Z,97982.60
2023-03-05T15:46:32.684Z,97981.20
2023-03-05T15:49:09.413Z,97984.00
2023-03-05T15:51:46.279Z,97976.80
2023-03-05T15:54:22.904Z,97970.80
2023-03-05T15:56:59.490Z,97968.00
2023-03-05T15:59:36.072Z,97961.20
2023-03-05T16:02:12.823Z,97963.20
2023-03-05T16:04:49.512Z,97972.40
2023-03-05T16:07:25.907Z,97969.80
2023-03-05T16:10:03.012Z,97969.40
2023-03-05T16:12:43.517Z,97963.60
2023-03-05T16:15:23.600Z,97964.00
2023-03-05T16:18:06.168Z,97971.60
2023-03-05T16:20:43.009Z,97964.40
2023-03-05T16:23:19.894Z,97970.80
2023-03-05T16:25:58.703Z,97974.60
2023-03-05T16:28:36.552Z,97970.40
2023-03-05T16:31:13.495Z,97974.80
2023-03-05T16:33:50.405Z,97976.80
2023-03-05T16:36:31.548Z,97977.40
2023-03-05T16:39:11.148Z,97973.80
2023-03-05T16:41:48.227Z,97976.80
2023-03-05T16:44:25.019Z,97972.80
2023-03-05T16:47:01.332Z,97971.60
2023-03-05T16:49:38.112Z,97971.00
2023-03-05T16:52:19.701Z,97971.20
2023-03-05T16:54:57.808Z,97974.00
2023-03-05T16:57:34.893Z,97976.40
2023-03-05T17:00:17.247Z,97971.20
2023-03-05T17:02:54.411Z,97973.00
2023-03-05T17:05:32.015Z,97975.40
2023-03-05T17:08:09.881Z,97972.60
2023-03-05T17:10:47.379Z,97981.60
2023-03-05T17:13:24.017Z,97984.40
2023-03-05T17:16:01.068Z,97985.00
2023-03-05T17:18:38.601Z,97983.00
2023-03-05T17:21:16.581Z,97982.20
2023-03-05T17:23:53.340Z,97989.60
2023-03-05T17:26:32.730Z,97992.00
2023-03-05T17:29:10.383Z,97996.20
2023-03-05T17:31:47.620Z,97999.00
2023-03-05T17:34:35.580Z,97999.00
2023-03-05T17:37:16.723Z,98002.20
2023-03-05T17:39:53.969Z,98007.40
2023-03-05T17:42:31.516Z,98009.00
2023-03-05T17:45:09.906Z,98002.40
2023-03-05T17:47:47.157Z,98006.60
2023-03-05T17:50:25.232Z,98006.20
2023-03-05T17:53:02.054Z,98003.60
2023-03-05T17:55:41.175Z,98001.60
2023-03-05T17:58:18.134Z,98006.20
2023-03-05T18:00:55.317Z,98004.40
2023-03-05T18:03:34.301Z,97999.60
2023-03-05T18:06:12.737Z,98004.40
2023-03-05T18:08:50.017Z,98001.00
2023-03-05T18:11:27.675Z,97997.80
2023-03-05T18:14:06.172Z,97996.60
2023-03-05T18:16:43.002Z,98002.20
2023-03-05T18:19:20.012Z,98009.60
2023-03-05T18:21:57.889Z,98007.80
2023-03-05T18:24:35.828Z,98013.40
2023-03-05T18:27:13.019Z,98015.80
2023-03-05T18:29:54.088Z,98012.40
2023-03-05T18:32:31.876Z,98019.40
2023-03-05T18:35:14.200Z,98016.20
2023-03-05T18:37:51.035Z,98022.00
2023-03-05T18:40:32.658Z,98021.20
2023-03-05T18:43:11.023Z,98018.60
2023-03-05T18:45:49.103Z,98014.20
2023-03-05T18:48:26.646Z,98010.00
2023-03-05T18:51:03.696Z,98008.00
2023-03-05T18:53:40.256Z,98006.00
2023-03-05T18:56:17.503Z,97992.00
2023-03-05T18:58:54.410Z,97989.60
2023-03-05T19:01:31.534Z,97991.80
2023-03-05T19:04:08.443Z,97991.20
2023-03-05T19:06:45.513Z,97994.00
2023-03-05T19:09:58.857Z,97990.60
2023-03-05T19:13:06.022Z,97993.80
2023-03-05T19:15:57.521Z,97993.20
2023-03-05T19:19:16.565Z,97997.40
2023-03-05T19:21:56.455Z,98004.60
2023-03-05T19:24:34.787Z,98004.80
2023-03-05T19:27:13.592Z,98004.80
2023-03-05T19:29:50.836Z,98005.60
2023-03-05T19:32:27.764Z,98008.20
2023-03-05T19:35:05.061Z,98007.80
2023-03-05T19:37:41.669Z,98002.60
2023-03-05T19:40:20.828Z,98001.40
2023-03-05T19:42:58.011Z,98001.80
2023-03-05T19:45:38.410Z,98004.00
2023-03-05T19:48:16.904Z,98006.80
2023-03-05T19:50:55.044Z,98006.80
2023-03-05T19:53:32.080Z,98002.40
2023-03-05T19:56:11.847Z,98003.60
2023-03-05T19:58:50.286Z,98005.40
2023-03-05T20:01:29.997Z,98008.20
2023-03-05T20:04:09.519Z,98006.00
2023-03-05T20:06:47.003Z,98007.20
2023-03-05T20:09:23.850Z,98002.20
2023-03-05T20:12:02.850Z,98006.60
2023-03-05T20:14:40.162Z,98007.40
2023-03-05T20:17:17.534Z,98004.40
2023-03-05T20:19:58.994Z,98000.80
2023-03-05T20:22:35.943Z,97996.60
2023-03-05T20:25:16.523Z,97989.60
2023-03-05T20:27:54.490Z,97987.40
2023-03-05T20:30:31.656Z,97987.00
2023-03-05T20:33:09.324Z,97986.00
2023-03-05T20:35:46.279Z,97979.40
2023-03-05T20:38:29.678Z,97983.80
2023-03-05T20:41:10.331Z,97976.80
2023-03-05T20:43:50.690Z,97980.80
2023-03-05T20:46:31.433Z,97979.20
2023-03-05T20:49:09.109Z,97985.40
2023-03-05T20:51:49.206Z,97984.40
2023-03-05T20:54:27.374Z,97979.00
2023-03-05T20:57:04.290Z,97976.80
2023-03-05T20:59:41.206Z,97981.40
2023-03-05T21:02:18.505Z,97981.40
2023-03-05T21:04:55.135Z,97977.00
2023-03-05T21:07:31.602Z,97977.80
2023-03-05T21:10:11.101Z,97973.00
2023-03-05T21:12:47.887Z,97972.00
2023-03-05T21:15:29.598Z,97973.80
2023-03-05T21:18:09.485Z,97971.00
2023-03-05T21:20:46.115Z,97971.20
2023-03-05T21:23:22.405Z,97971.20
2023-03-05T21:25:59.072Z,97977.00
2023-03-05T21:28:35.527Z,97974.60
2023-03-05T21:31:21.662Z,97970.40
2023-03-05T21:33:58.172Z,97966.20
2023-03-05T21:36:35.263Z,97965.60
2023-03-05T21:39:11.828Z,97958.20
2023-03-05T21:41:48.509Z,97959.40
2023-03-05T21:44:25.134Z,97955.80
2023-03-05T21:47:01.472Z,97951.20
2023-03-05T21:49:37.910Z,97955.80
2023-03-05T21:52:15.316Z,97960.80
2023-03-05T21:54:53.952Z,97958.60
2023-03-05T21:57:30.452Z,97953.20
2023-03-05T22:00:10.075Z,97947.80
2023-03-05T22:02:48.225Z,97945.20
2023-03-05T22:05:25.135Z,97937.20
2023-03-05T22:08:01.398Z,97941.40
2023-03-05T22:10:37.747Z,97940.20
2023-03-05T22:13:17.746Z,97937.20
2023-03-05T22:15:57.299Z,97937.80
2023-03-05T22:18:36.248Z,97938.40
2023-03-05T22:21:27.037Z,97934.40
2023-03-05T22:24:04.021Z,97931.20
2023-03-05T22:26:43.134Z,97930.60
2023-03-05T22:29:19.906Z,97933.40
2023-03-05T22:31:58.457Z,97932.40
2023-03-05T22:34:35.115Z,97932.00
2023-03-05T22:37:12.350Z,97923.20
2023-03-05T22:39:48.864Z,97924.80
2023-03-05T22:42:25.766Z,97921.40
2023-03-05T22:45:06.039Z,97925.20
2023-03-05T22:47:42.876Z,97925.40
2023-03-05T22:50:20.156Z,97921.40
2023-03-05T22:52:56.525Z,97926.20
2023-03-05T22:55:33.249Z,97920.00
2023-03-05T22:58:09.793Z,97920.80
2023-03-05T23:00:46.240Z,97929.00
2023-03-05T23:03:22.635Z,97929.20
2023-03-05T23:05:59.289Z,97933.00
2023-03-05T23:08:36.270Z,97931.00
2023-03-05T23:11:17.118Z,97926.20
2023-03-05T23:13:53.413Z,97920.60
2023-03-05T23:16:29.773Z,97922.20
2023-03-05T23:19:06.139Z,97916.00
2023-03-05T23:21:42.813Z,97915.20
2023-03-05T23:24:19.203Z,97910.40
2023-03-05T23:26:55.658Z,97908.80
2023-03-05T23:30:20.653Z,97907.60
2023-03-05T23:33:00.774Z,97906.40
2023-03-05T23:35:41.864Z,97906.00
2023-03-05T23:38:19.583Z,97899.80
2023-03-05T23:41:01.214Z,97892.00
2023-03-05T23:43:38.436Z,97891.60
2023-03-05T23:46:18.338Z,97894.20
2023-03-05T23:48:54.821Z,97900.80
2023-03-05T23:51:31.189Z,97904.80
2023-03-05T23:54:08.211Z,97901.80
2023-03-05T23:56:44.898Z,97896.40
2023-03-05T23:59:22.233Z,97904.80
